sensor_id;sensor_type;location;lat;lon;timestamp;P1;durP1;ratioP1;P2;durP2;ratioP2
39410;SDS011;26579;43.238;23.124;2023-07-31T00:00:26;5.55;;;4.28;;
39410;SDS011;26579;43.238;23.124;2023-07-31T00:02:52;8.75;;;5.05;;
39410;SDS011;26579;43.238;23.124;2023-07-31T00:05:17;5.57;;;3.92;;
39410;SDS011;26579;43.238;23.124;2023-07-31T00:07:43;5.43;;;4.07;;
39410;SDS011;26579;43.238;23.124;2023-07-31T00:10:09;5.45;;;4.22;;
39410;SDS011;26579;43.238;23.124;2023-07-31T00:12:35;5.28;;;3.92;;
39410;SDS011;26579;43.238;23.124;2023-07-31T00:15:01;5.78;;;4.40;;
39410;SDS011;26579;43.238;23.124;2023-07-31T00:17:27;6.53;;;4.72;;
39410;SDS011;26579;43.238;23.124;2023-07-31T00:19:53;6.15;;;4.22;;
39410;SDS011;26579;43.238;23.124;2023-07-31T00:22:18;6.78;;;4.40;;
39410;SDS011;26579;43.238;23.124;2023-07-31T00:24:44;5.88;;;4.72;;
39410;SDS011;26579;43.238;23.124;2023-07-31T00:27:10;5.10;;;4.50;;
39410;SDS011;26579;43.238;23.124;2023-07-31T00:29:35;6.63;;;5.00;;
39410;SDS011;26579;43.238;23.124;2023-07-31T00:32:03;7.47;;;4.65;;
39410;SDS011;26579;43.238;23.124;2023-07-31T00:34:30;6.90;;;4.32;;
39410;SDS011;26579;43.238;23.124;2023-07-31T00:36:55;5.57;;;4.47;;
39410;SDS011;26579;43.238;23.124;2023-07-31T00:39:21;5.13;;;4.13;;
39410;SDS011;26579;43.238;23.124;2023-07-31T00:41:46;8.00;;;4.00;;
39410;SDS011;26579;43.238;23.124;2023-07-31T00:44:12;6.78;;;4.60;;
39410;SDS011;26579;43.238;23.124;2023-07-31T00:46:38;9.93;;;4.40;;
39410;SDS011;26579;43.238;23.124;2023-07-31T00:49:03;7.20;;;4.70;;
39410;SDS011;26579;43.238;23.124;2023-07-31T00:51:30;6.00;;;4.40;;
39410;SDS011;26579;43.238;23.124;2023-07-31T00:53:56;6.18;;;3.78;;
39410;SDS011;26579;43.238;23.124;2023-07-31T00:56:23;6.50;;;4.72;;
39410;SDS011;26579;43.238;23.124;2023-07-31T00:58:50;5.43;;;4.10;;
39410;SDS011;26579;43.238;23.124;2023-07-31T01:01:16;5.88;;;4.30;;
39410;SDS011;26579;43.238;23.124;2023-07-31T01:03:42;5.97;;;4.63;;
39410;SDS011;26579;43.238;23.124;2023-07-31T01:11:29;6.25;;;4.68;;
39410;SDS011;26579;43.238;23.124;2023-07-31T01:14:08;6.45;;;4.57;;
39410;SDS011;26579;43.238;23.124;2023-07-31T01:16:34;7.20;;;3.80;;
39410;SDS011;26579;43.238;23.124;2023-07-31T01:19:00;5.32;;;4.32;;
39410;SDS011;26579;43.238;23.124;2023-07-31T01:26:41;7.70;;;4.75;;
39410;SDS011;26579;43.238;23.124;2023-07-31T01:29:13;5.68;;;4.32;;
39410;SDS011;26579;43.238;23.124;2023-07-31T01:31:48;4.78;;;3.97;;
39410;SDS011;26579;43.238;23.124;2023-07-31T01:34:16;5.53;;;3.88;;
39410;SDS011;26579;43.238;23.124;2023-07-31T01:36:43;5.15;;;3.78;;
39410;SDS011;26579;43.238;23.124;2023-07-31T01:39:09;6.25;;;4.28;;
39410;SDS011;26579;43.238;23.124;2023-07-31T01:41:35;4.85;;;3.92;;
39410;SDS011;26579;43.238;23.124;2023-07-31T01:44:00;5.03;;;3.95;;
39410;SDS011;26579;43.238;23.124;2023-07-31T01:46:26;4.85;;;3.97;;
39410;SDS011;26579;43.238;23.124;2023-07-31T01:48:52;4.63;;;3.83;;
39410;SDS011;26579;43.238;23.124;2023-07-31T01:51:18;4.82;;;3.60;;
39410;SDS011;26579;43.238;23.124;2023-07-31T01:53:44;4.78;;;3.83;;
39410;SDS011;26579;43.238;23.124;2023-07-31T01:56:09;4.63;;;3.70;;
39410;SDS011;26579;43.238;23.124;2023-07-31T01:58:35;4.72;;;4.05;;
39410;SDS011;26579;43.238;23.124;2023-07-31T02:01:01;6.65;;;3.88;;
39410;SDS011;26579;43.238;23.124;2023-07-31T02:03:27;4.55;;;3.80;;
39410;SDS011;26579;43.238;23.124;2023-07-31T02:05:53;8.07;;;4.35;;
39410;SDS011;26579;43.238;23.124;2023-07-31T02:08:19;5.13;;;3.65;;
39410;SDS011;26579;43.238;23.124;2023-07-31T02:10:45;6.38;;;4.18;;
39410;SDS011;26579;43.238;23.124;2023-07-31T02:13:11;4.40;;;3.75;;
39410;SDS011;26579;43.238;23.124;2023-07-31T02:15:36;5.50;;;3.60;;
39410;SDS011;26579;43.238;23.124;2023-07-31T02:18:02;6.70;;;3.72;;
39410;SDS011;26579;43.238;23.124;2023-07-31T02:20:28;5.10;;;3.55;;
39410;SDS011;26579;43.238;23.124;2023-07-31T02:22:54;5.05;;;3.95;;
39410;SDS011;26579;43.238;23.124;2023-07-31T02:25:19;4.85;;;3.47;;
39410;SDS011;26579;43.238;23.124;2023-07-31T02:27:46;4.72;;;3.50;;
39410;SDS011;26579;43.238;23.124;2023-07-31T02:30:12;5.28;;;3.92;;
39410;SDS011;26579;43.238;23.124;2023-07-31T02:32:37;4.22;;;3.40;;
39410;SDS011;26579;43.238;23.124;2023-07-31T02:35:03;5.38;;;3.40;;
39410;SDS011;26579;43.238;23.124;2023-07-31T02:37:29;5.03;;;3.47;;
39410;SDS011;26579;43.238;23.124;2023-07-31T02:39:55;4.80;;;3.58;;
39410;SDS011;26579;43.238;23.124;2023-07-31T02:42:20;4.43;;;3.10;;
39410;SDS011;26579;43.238;23.124;2023-07-31T02:44:46;4.57;;;3.45;;
39410;SDS011;26579;43.238;23.124;2023-07-31T02:47:12;8.85;;;3.78;;
39410;SDS011;26579;43.238;23.124;2023-07-31T02:49:37;3.95;;;2.97;;
39410;SDS011;26579;43.238;23.124;2023-07-31T02:52:03;6.25;;;3.97;;
39410;SDS011;26579;43.238;23.124;2023-07-31T02:54:29;7.00;;;4.30;;
39410;SDS011;26579;43.238;23.124;2023-07-31T02:56:55;7.18;;;4.30;;
39410;SDS011;26579;43.238;23.124;2023-07-31T02:59:21;5.50;;;3.83;;
39410;SDS011;26579;43.238;23.124;2023-07-31T03:01:46;4.10;;;3.33;;
39410;SDS011;26579;43.238;23.124;2023-07-31T03:04:12;5.90;;;3.53;;
39410;SDS011;26579;43.238;23.124;2023-07-31T03:06:38;5.22;;;3.85;;
39410;SDS011;26579;43.238;23.124;2023-07-31T03:09:03;8.60;;;3.28;;
39410;SDS011;26579;43.238;23.124;2023-07-31T03:11:29;6.20;;;3.25;;
39410;SDS011;26579;43.238;23.124;2023-07-31T03:13:55;4.47;;;3.70;;
39410;SDS011;26579;43.238;23.124;2023-07-31T03:16:21;4.68;;;3.33;;
39410;SDS011;26579;43.238;23.124;2023-07-31T03:18:47;5.50;;;3.42;;
39410;SDS011;26579;43.238;23.124;2023-07-31T03:21:12;5.93;;;3.42;;
39410;SDS011;26579;43.238;23.124;2023-07-31T03:23:38;5.68;;;4.00;;
39410;SDS011;26579;43.238;23.124;2023-07-31T03:26:05;4.80;;;3.33;;
39410;SDS011;26579;43.238;23.124;2023-07-31T03:28:32;4.90;;;3.65;;
39410;SDS011;26579;43.238;23.124;2023-07-31T03:30:58;6.97;;;3.53;;
39410;SDS011;26579;43.238;23.124;2023-07-31T03:33:23;5.00;;;3.10;;
39410;SDS011;26579;43.238;23.124;2023-07-31T03:35:50;7.22;;;3.53;;
39410;SDS011;26579;43.238;23.124;2023-07-31T03:38:15;6.72;;;3.80;;
39410;SDS011;26579;43.238;23.124;2023-07-31T03:40:41;4.63;;;3.83;;
39410;SDS011;26579;43.238;23.124;2023-07-31T03:43:07;3.65;;;3.00;;
39410;SDS011;26579;43.238;23.124;2023-07-31T03:45:32;6.30;;;3.70;;
39410;SDS011;26579;43.238;23.124;2023-07-31T03:47:58;6.15;;;3.40;;
39410;SDS011;26579;43.238;23.124;2023-07-31T03:50:25;6.93;;;3.10;;
39410;SDS011;26579;43.238;23.124;2023-07-31T03:52:51;4.10;;;3.30;;
39410;SDS011;26579;43.238;23.124;2023-07-31T03:55:17;8.55;;;3.70;;
39410;SDS011;26579;43.238;23.124;2023-07-31T03:57:42;5.55;;;3.75;;
39410;SDS011;26579;43.238;23.124;2023-07-31T04:00:08;6.45;;;4.00;;
39410;SDS011;26579;43.238;23.124;2023-07-31T04:02:37;6.43;;;3.65;;
39410;SDS011;26579;43.238;23.124;2023-07-31T04:05:04;3.90;;;3.40;;
39410;SDS011;26579;43.238;23.124;2023-07-31T04:07:29;6.28;;;3.53;;
39410;SDS011;26579;43.238;23.124;2023-07-31T04:09:56;5.80;;;3.78;;
39410;SDS011;26579;43.238;23.124;2023-07-31T04:12:22;8.88;;;4.38;;
39410;SDS011;26579;43.238;23.124;2023-07-31T04:14:48;6.72;;;3.63;;
39410;SDS011;26579;43.238;23.124;2023-07-31T04:17:14;9.20;;;5.53;;
39410;SDS011;26579;43.238;23.124;2023-07-31T04:19:39;8.85;;;4.70;;
39410;SDS011;26579;43.238;23.124;2023-07-31T04:22:05;6.57;;;4.22;;
39410;SDS011;26579;43.238;23.124;2023-07-31T04:24:31;6.32;;;4.05;;
39410;SDS011;26579;43.238;23.124;2023-07-31T04:26:56;6.80;;;4.72;;
39410;SDS011;26579;43.238;23.124;2023-07-31T04:29:22;10.32;;;5.40;;
39410;SDS011;26579;43.238;23.124;2023-07-31T04:31:48;6.95;;;4.82;;
39410;SDS011;26579;43.238;23.124;2023-07-31T04:34:13;8.55;;;4.88;;
39410;SDS011;26579;43.238;23.124;2023-07-31T04:36:39;9.38;;;5.90;;
39410;SDS011;26579;43.238;23.124;2023-07-31T04:39:05;8.48;;;5.50;;
39410;SDS011;26579;43.238;23.124;2023-07-31T04:41:31;8.13;;;5.93;;
39410;SDS011;26579;43.238;23.124;2023-07-31T04:43:56;8.55;;;6.80;;
39410;SDS011;26579;43.238;23.124;2023-07-31T04:46:22;12.90;;;6.93;;
39410;SDS011;26579;43.238;23.124;2023-07-31T04:48:48;11.77;;;7.13;;
39410;SDS011;26579;43.238;23.124;2023-07-31T04:51:13;9.00;;;5.32;;
39410;SDS011;26579;43.238;23.124;2023-07-31T04:53:40;9.18;;;4.80;;
39410;SDS011;26579;43.238;23.124;2023-07-31T04:56:05;6.45;;;4.63;;
39410;SDS011;26579;43.238;23.124;2023-07-31T04:58:31;8.35;;;4.35;;
39410;SDS011;26579;43.238;23.124;2023-07-31T05:00:57;7.75;;;5.05;;
39410;SDS011;26579;43.238;23.124;2023-07-31T05:03:22;7.38;;;4.90;;
39410;SDS011;26579;43.238;23.124;2023-07-31T05:05:48;11.10;;;5.00;;
39410;SDS011;26579;43.238;23.124;2023-07-31T05:08:15;6.53;;;4.82;;
39410;SDS011;26579;43.238;23.124;2023-07-31T05:10:40;9.50;;;5.43;;
39410;SDS011;26579;43.238;23.124;2023-07-31T05:13:06;8.13;;;4.82;;
39410;SDS011;26579;43.238;23.124;2023-07-31T05:15:32;8.50;;;5.22;;
39410;SDS011;26579;43.238;23.124;2023-07-31T05:17:57;7.70;;;4.93;;
39410;SDS011;26579;43.238;23.124;2023-07-31T05:20:23;5.95;;;4.28;;
39410;SDS011;26579;43.238;23.124;2023-07-31T05:22:50;9.75;;;5.05;;
39410;SDS011;26579;43.238;23.124;2023-07-31T05:25:16;11.57;;;5.32;;
39410;SDS011;26579;43.238;23.124;2023-07-31T05:27:42;6.13;;;4.95;;
39410;SDS011;26579;43.238;23.124;2023-07-31T05:30:07;5.30;;;4.40;;
39410;SDS011;26579;43.238;23.124;2023-07-31T05:32:33;8.70;;;5.55;;
39410;SDS011;26579;43.238;23.124;2023-07-31T05:34:59;5.68;;;4.25;;
39410;SDS011;26579;43.238;23.124;2023-07-31T05:37:25;6.53;;;4.70;;
39410;SDS011;26579;43.238;23.124;2023-07-31T05:39:54;6.55;;;5.05;;
39410;SDS011;26579;43.238;23.124;2023-07-31T05:42:20;7.85;;;4.65;;
39410;SDS011;26579;43.238;23.124;2023-07-31T05:44:45;9.48;;;5.60;;
39410;SDS011;26579;43.238;23.124;2023-07-31T05:47:11;6.30;;;4.65;;
39410;SDS011;26579;43.238;23.124;2023-07-31T05:49:37;8.00;;;5.25;;
39410;SDS011;26579;43.238;23.124;2023-07-31T05:52:02;5.78;;;4.47;;
39410;SDS011;26579;43.238;23.124;2023-07-31T05:54:28;8.15;;;4.43;;
39410;SDS011;26579;43.238;23.124;2023-07-31T05:56:54;6.07;;;3.17;;
39410;SDS011;26579;43.238;23.124;2023-07-31T05:59:20;5.28;;;2.88;;
39410;SDS011;26579;43.238;23.124;2023-07-31T06:01:46;4.30;;;2.50;;
39410;SDS011;26579;43.238;23.124;2023-07-31T06:04:11;6.47;;;3.88;;
39410;SDS011;26579;43.238;23.124;2023-07-31T06:06:37;5.90;;;3.97;;
39410;SDS011;26579;43.238;23.124;2023-07-31T06:09:03;8.10;;;3.58;;
39410;SDS011;26579;43.238;23.124;2023-07-31T06:11:28;5.65;;;4.05;;
39410;SDS011;26579;43.238;23.124;2023-07-31T06:13:54;10.15;;;4.20;;
39410;SDS011;26579;43.238;23.124;2023-07-31T06:16:20;7.07;;;3.85;;
39410;SDS011;26579;43.238;23.124;2023-07-31T06:18:46;5.18;;;3.63;;
39410;SDS011;26579;43.238;23.124;2023-07-31T06:21:12;3.97;;;2.35;;
39410;SDS011;26579;43.238;23.124;2023-07-31T06:23:37;3.80;;;2.60;;
39410;SDS011;26579;43.238;23.124;2023-07-31T06:26:03;2.92;;;1.95;;
39410;SDS011;26579;43.238;23.124;2023-07-31T06:28:29;5.30;;;2.15;;
39410;SDS011;26579;43.238;23.124;2023-07-31T06:30:55;12.00;;;3.25;;
39410;SDS011;26579;43.238;23.124;2023-07-31T06:33:22;2.95;;;2.00;;
39410;SDS011;26579;43.238;23.124;2023-07-31T06:35:47;3.53;;;1.60;;
39410;SDS011;26579;43.238;23.124;2023-07-31T06:38:13;2.85;;;1.83;;
39410;SDS011;26579;43.238;23.124;2023-07-31T06:40:39;2.40;;;1.45;;
39410;SDS011;26579;43.238;23.124;2023-07-31T06:43:05;2.92;;;1.52;;
39410;SDS011;26579;43.238;23.124;2023-07-31T06:45:31;2.03;;;1.42;;
39410;SDS011;26579;43.238;23.124;2023-07-31T06:47:57;2.83;;;1.80;;
39410;SDS011;26579;43.238;23.124;2023-07-31T06:50:25;2.45;;;1.60;;
39410;SDS011;26579;43.238;23.124;2023-07-31T06:52:51;2.53;;;1.50;;
39410;SDS011;26579;43.238;23.124;2023-07-31T06:55:18;1.63;;;1.02;;
39410;SDS011;26579;43.238;23.124;2023-07-31T06:57:48;2.10;;;1.33;;
39410;SDS011;26579;43.238;23.124;2023-07-31T07:00:16;1.95;;;1.20;;
39410;SDS011;26579;43.238;23.124;2023-07-31T07:02:42;1.98;;;1.35;;
39410;SDS011;26579;43.238;23.124;2023-07-31T07:05:08;1.83;;;1.30;;
39410;SDS011;26579;43.238;23.124;2023-07-31T07:07:35;3.30;;;1.52;;
39410;SDS011;26579;43.238;23.124;2023-07-31T07:10:01;3.30;;;1.60;;
39410;SDS011;26579;43.238;23.124;2023-07-31T07:12:28;3.38;;;1.98;;
39410;SDS011;26579;43.238;23.124;2023-07-31T07:14:55;3.40;;;1.63;;
39410;SDS011;26579;43.238;23.124;2023-07-31T07:17:21;2.20;;;1.50;;
39410;SDS011;26579;43.238;23.124;2023-07-31T07:19:47;2.50;;;1.48;;
39410;SDS011;26579;43.238;23.124;2023-07-31T07:22:13;3.17;;;1.52;;
39410;SDS011;26579;43.238;23.124;2023-07-31T07:24:40;2.92;;;1.40;;
39410;SDS011;26579;43.238;23.124;2023-07-31T07:27:05;2.55;;;1.45;;
39410;SDS011;26579;43.238;23.124;2023-07-31T07:29:31;2.00;;;1.27;;
39410;SDS011;26579;43.238;23.124;2023-07-31T07:31:59;2.55;;;1.45;;
39410;SDS011;26579;43.238;23.124;2023-07-31T07:34:27;2.15;;;1.00;;
39410;SDS011;26579;43.238;23.124;2023-07-31T07:36:53;4.00;;;1.80;;
39410;SDS011;26579;43.238;23.124;2023-07-31T07:39:20;1.98;;;1.17;;
39410;SDS011;26579;43.238;23.124;2023-07-31T07:41:46;5.05;;;1.80;;
39410;SDS011;26579;43.238;23.124;2023-07-31T07:44:12;2.80;;;1.50;;
39410;SDS011;26579;43.238;23.124;2023-07-31T07:46:39;14.88;;;2.00;;
39410;SDS011;26579;43.238;23.124;2023-07-31T07:49:04;1.95;;;1.42;;
39410;SDS011;26579;43.238;23.124;2023-07-31T07:51:30;5.05;;;1.65;;
39410;SDS011;26579;43.238;23.124;2023-07-31T07:53:56;2.88;;;1.77;;
39410;SDS011;26579;43.238;23.124;2023-07-31T07:56:22;2.50;;;1.40;;
39410;SDS011;26579;43.238;23.124;2023-07-31T07:58:49;2.70;;;1.40;;
39410;SDS011;26579;43.238;23.124;2023-07-31T08:01:15;4.15;;;1.88;;
39410;SDS011;26579;43.238;23.124;2023-07-31T08:03:41;8.18;;;1.55;;
39410;SDS011;26579;43.238;23.124;2023-07-31T08:06:07;2.47;;;1.50;;
39410;SDS011;26579;43.238;23.124;2023-07-31T08:08:33;3.85;;;2.05;;
39410;SDS011;26579;43.238;23.124;2023-07-31T08:10:58;2.92;;;1.52;;
39410;SDS011;26579;43.238;23.124;2023-07-31T08:13:24;4.88;;;1.85;;
39410;SDS011;26579;43.238;23.124;2023-07-31T08:15:50;3.67;;;1.13;;
39410;SDS011;26579;43.238;23.124;2023-07-31T08:18:15;4.60;;;1.75;;
39410;SDS011;26579;43.238;23.124;2023-07-31T08:20:41;5.70;;;1.38;;
39410;SDS011;26579;43.238;23.124;2023-07-31T08:23:07;6.55;;;2.20;;
39410;SDS011;26579;43.238;23.124;2023-07-31T08:25:34;5.10;;;2.08;;
39410;SDS011;26579;43.238;23.124;2023-07-31T08:28:00;4.68;;;3.13;;
39410;SDS011;26579;43.238;23.124;2023-07-31T08:30:26;6.30;;;3.00;;
39410;SDS011;26579;43.238;23.124;2023-07-31T08:32:52;5.22;;;1.85;;
39410;SDS011;26579;43.238;23.124;2023-07-31T08:35:17;4.35;;;1.80;;
39410;SDS011;26579;43.238;23.124;2023-07-31T08:37:43;3.50;;;2.35;;
39410;SDS011;26579;43.238;23.124;2023-07-31T08:40:09;6.03;;;2.28;;
39410;SDS011;26579;43.238;23.124;2023-07-31T08:42:42;3.42;;;2.00;;
39410;SDS011;26579;43.238;23.124;2023-07-31T08:45:16;2.83;;;1.85;;
39410;SDS011;26579;43.238;23.124;2023-07-31T08:47:49;2.83;;;1.90;;
39410;SDS011;26579;43.238;23.124;2023-07-31T08:50:17;3.03;;;1.77;;
39410;SDS011;26579;43.238;23.124;2023-07-31T08:52:45;2.78;;;1.70;;
39410;SDS011;26579;43.238;23.124;2023-07-31T08:55:12;6.63;;;1.73;;
39410;SDS011;26579;43.238;23.124;2023-07-31T08:57:39;2.75;;;1.73;;
39410;SDS011;26579;43.238;23.124;2023-07-31T09:00:05;2.05;;;1.40;;
39410;SDS011;26579;43.238;23.124;2023-07-31T09:02:54;2.30;;;1.33;;
39410;SDS011;26579;43.238;23.124;2023-07-31T09:05:23;4.90;;;2.08;;
39410;SDS011;26579;43.238;23.124;2023-07-31T09:07:52;17.48;;;2.72;;
39410;SDS011;26579;43.238;23.124;2023-07-31T09:10:18;2.90;;;1.90;;
39410;SDS011;26579;43.238;23.124;2023-07-31T09:12:44;2.08;;;1.50;;
39410;SDS011;26579;43.238;23.124;2023-07-31T09:15:11;2.30;;;1.45;;
39410;SDS011;26579;43.238;23.124;2023-07-31T09:17:37;2.60;;;1.80;;
39410;SDS011;26579;43.238;23.124;2023-07-31T09:20:15;3.33;;;1.42;;
39410;SDS011;26579;43.238;23.124;2023-07-31T09:22:45;2.63;;;1.33;;
39410;SDS011;26579;43.238;23.124;2023-07-31T09:30:12;2.95;;;1.52;;
39410;SDS011;26579;43.238;23.124;2023-07-31T09:32:37;1.80;;;1.23;;
39410;SDS011;26579;43.238;23.124;2023-07-31T09:37:48;2.83;;;1.77;;
39410;SDS011;26579;43.238;23.124;2023-07-31T09:40:33;2.58;;;1.85;;
39410;SDS011;26579;43.238;23.124;2023-07-31T09:43:01;3.60;;;1.93;;
39410;SDS011;26579;43.238;23.124;2023-07-31T09:45:28;2.45;;;1.40;;
39410;SDS011;26579;43.238;23.124;2023-07-31T09:47:55;3.40;;;1.92;;
39410;SDS011;26579;43.238;23.124;2023-07-31T09:50:22;2.78;;;1.50;;
39410;SDS011;26579;43.238;23.124;2023-07-31T09:52:50;2.22;;;1.50;;
39410;SDS011;26579;43.238;23.124;2023-07-31T09:55:16;2.78;;;1.88;;
39410;SDS011;26579;43.238;23.124;2023-07-31T09:57:43;2.92;;;1.80;;
39410;SDS011;26579;43.238;23.124;2023-07-31T10:00:11;5.18;;;1.92;;
39410;SDS011;26579;43.238;23.124;2023-07-31T10:02:38;5.50;;;1.75;;
39410;SDS011;26579;43.238;23.124;2023-07-31T10:05:05;3.28;;;2.00;;
39410;SDS011;26579;43.238;23.124;2023-07-31T10:07:34;3.40;;;1.65;;
39410;SDS011;26579;43.238;23.124;2023-07-31T10:10:02;5.90;;;1.92;;
39410;SDS011;26579;43.238;23.124;2023-07-31T10:12:29;2.25;;;1.50;;
39410;SDS011;26579;43.238;23.124;2023-07-31T10:14:57;3.72;;;1.70;;
39410;SDS011;26579;43.238;23.124;2023-07-31T10:17:25;2.10;;;1.42;;
39410;SDS011;26579;43.238;23.124;2023-07-31T10:19:51;2.45;;;1.83;;
39410;SDS011;26579;43.238;23.124;2023-07-31T10:22:19;2.38;;;1.65;;
39410;SDS011;26579;43.238;23.124;2023-07-31T10:24:45;3.47;;;1.25;;
39410;SDS011;26579;43.238;23.124;2023-07-31T10:27:11;2.35;;;1.58;;
39410;SDS011;26579;43.238;23.124;2023-07-31T10:29:41;3.05;;;1.77;;
39410;SDS011;26579;43.238;23.124;2023-07-31T10:32:09;2.95;;;1.50;;
39410;SDS011;26579;43.238;23.124;2023-07-31T10:34:36;2.10;;;1.60;;
39410;SDS011;26579;43.238;23.124;2023-07-31T10:45:02;2.13;;;1.20;;
39410;SDS011;26579;43.238;23.124;2023-07-31T10:47:38;2.35;;;1.48;;
39410;SDS011;26579;43.238;23.124;2023-07-31T10:50:18;6.43;;;3.90;;
39410;SDS011;26579;43.238;23.124;2023-07-31T10:52:49;2.85;;;1.73;;
39410;SDS011;26579;43.238;23.124;2023-07-31T10:57:50;5.28;;;1.33;;
39410;SDS011;26579;43.238;23.124;2023-07-31T11:00:28;3.78;;;1.63;;
39410;SDS011;26579;43.238;23.124;2023-07-31T11:02:58;2.53;;;1.70;;
39410;SDS011;26579;43.238;23.124;2023-07-31T11:08:10;2.70;;;1.73;;
39410;SDS011;26579;43.238;23.124;2023-07-31T11:13:30;2.47;;;1.95;;
39410;SDS011;26579;43.238;23.124;2023-07-31T11:16:04;5.63;;;3.22;;
39410;SDS011;26579;43.238;23.124;2023-07-31T11:18:30;4.07;;;2.13;;
39410;SDS011;26579;43.238;23.124;2023-07-31T11:20:56;3.30;;;2.20;;
39410;SDS011;26579;43.238;23.124;2023-07-31T11:23:21;3.60;;;1.95;;
39410;SDS011;26579;43.238;23.124;2023-07-31T11:25:48;3.22;;;2.13;;
39410;SDS011;26579;43.238;23.124;2023-07-31T11:28:15;4.20;;;2.50;;
39410;SDS011;26579;43.238;23.124;2023-07-31T11:30:42;3.45;;;2.17;;
39410;SDS011;26579;43.238;23.124;2023-07-31T11:33:10;5.25;;;2.00;;
39410;SDS011;26579;43.238;23.124;2023-07-31T11:35:48;3.10;;;1.92;;
39410;SDS011;26579;43.238;23.124;2023-07-31T11:38:24;3.38;;;1.90;;
39410;SDS011;26579;43.238;23.124;2023-07-31T11:40:53;4.70;;;2.00;;
39410;SDS011;26579;43.238;23.124;2023-07-31T11:43:19;3.10;;;1.75;;
39410;SDS011;26579;43.238;23.124;2023-07-31T11:45:49;3.53;;;2.58;;
39410;SDS011;26579;43.238;23.124;2023-07-31T11:48:22;4.10;;;2.00;;
39410;SDS011;26579;43.238;23.124;2023-07-31T11:50:52;2.95;;;1.92;;
39410;SDS011;26579;43.238;23.124;2023-07-31T11:53:21;3.67;;;2.20;;
39410;SDS011;26579;43.238;23.124;2023-07-31T11:55:52;2.90;;;2.00;;
39410;SDS011;26579;43.238;23.124;2023-07-31T11:58:18;3.17;;;2.10;;
39410;SDS011;26579;43.238;23.124;2023-07-31T12:00:45;3.67;;;2.05;;
39410;SDS011;26579;43.238;23.124;2023-07-31T12:03:11;2.38;;;1.70;;
39410;SDS011;26579;43.238;23.124;2023-07-31T12:05:37;3.72;;;2.22;;
39410;SDS011;26579;43.238;23.124;2023-07-31T12:08:08;4.05;;;2.10;;
39410;SDS011;26579;43.238;23.124;2023-07-31T12:10:35;5.00;;;2.17;;
39410;SDS011;26579;43.238;23.124;2023-07-31T12:13:05;3.47;;;2.50;;
39410;SDS011;26579;43.238;23.124;2023-07-31T12:15:35;3.30;;;2.03;;
39410;SDS011;26579;43.238;23.124;2023-07-31T12:18:06;3.03;;;2.30;;
39410;SDS011;26579;43.238;23.124;2023-07-31T12:20:34;3.88;;;2.60;;
39410;SDS011;26579;43.238;23.124;2023-07-31T12:23:00;4.03;;;2.60;;
39410;SDS011;26579;43.238;23.124;2023-07-31T12:25:30;4.93;;;2.88;;
39410;SDS011;26579;43.238;23.124;2023-07-31T12:27:56;3.28;;;2.65;;
39410;SDS011;26579;43.238;23.124;2023-07-31T12:32:55;4.30;;;2.70;;
39410;SDS011;26579;43.238;23.124;2023-07-31T12:35:21;3.85;;;2.97;;
39410;SDS011;26579;43.238;23.124;2023-07-31T12:37:46;6.15;;;3.40;;
39410;SDS011;26579;43.238;23.124;2023-07-31T12:40:12;3.58;;;2.80;;
39410;SDS011;26579;43.238;23.124;2023-07-31T12:42:38;4.20;;;3.35;;
39410;SDS011;26579;43.238;23.124;2023-07-31T12:45:04;3.15;;;2.40;;
39410;SDS011;26579;43.238;23.124;2023-07-31T12:47:30;4.65;;;3.17;;
39410;SDS011;26579;43.238;23.124;2023-07-31T12:49:55;3.42;;;2.50;;
39410;SDS011;26579;43.238;23.124;2023-07-31T12:52:21;4.35;;;2.25;;
39410;SDS011;26579;43.238;23.124;2023-07-31T12:54:47;5.30;;;3.05;;
39410;SDS011;26579;43.238;23.124;2023-07-31T12:57:12;3.22;;;2.45;;
39410;SDS011;26579;43.238;23.124;2023-07-31T12:59:38;5.88;;;4.80;;
39410;SDS011;26579;43.238;23.124;2023-07-31T13:02:04;2.60;;;2.20;;
39410;SDS011;26579;43.238;23.124;2023-07-31T13:04:30;4.15;;;3.60;;
39410;SDS011;26579;43.238;23.124;2023-07-31T13:06:56;3.65;;;2.75;;
39410;SDS011;26579;43.238;23.124;2023-07-31T13:09:21;3.75;;;3.03;;
39410;SDS011;26579;43.238;23.124;2023-07-31T13:11:47;4.05;;;2.47;;
39410;SDS011;26579;43.238;23.124;2023-07-31T13:14:13;3.72;;;2.42;;
39410;SDS011;26579;43.238;23.124;2023-07-31T13:16:38;3.05;;;2.50;;
39410;SDS011;26579;43.238;23.124;2023-07-31T13:19:04;3.65;;;2.97;;
39410;SDS011;26579;43.238;23.124;2023-07-31T13:21:30;3.92;;;2.72;;
39410;SDS011;26579;43.238;23.124;2023-07-31T13:23:55;5.22;;;2.80;;
39410;SDS011;26579;43.238;23.124;2023-07-31T13:26:21;3.35;;;2.72;;
39410;SDS011;26579;43.238;23.124;2023-07-31T13:28:47;3.35;;;2.72;;
39410;SDS011;26579;43.238;23.124;2023-07-31T13:31:12;2.83;;;2.28;;
39410;SDS011;26579;43.238;23.124;2023-07-31T13:33:38;2.85;;;2.28;;
39410;SDS011;26579;43.238;23.124;2023-07-31T13:36:04;2.85;;;2.03;;
39410;SDS011;26579;43.238;23.124;2023-07-31T13:38:29;2.45;;;1.80;;
39410;SDS011;26579;43.238;23.124;2023-07-31T13:40:55;2.33;;;1.83;;
39410;SDS011;26579;43.238;23.124;2023-07-31T13:43:21;3.03;;;1.85;;
39410;SDS011;26579;43.238;23.124;2023-07-31T13:45:47;2.80;;;1.90;;
39410;SDS011;26579;43.238;23.124;2023-07-31T13:48:12;5.65;;;2.20;;
39410;SDS011;26579;43.238;23.124;2023-07-31T13:50:38;2.58;;;2.00;;
39410;SDS011;26579;43.238;23.124;2023-07-31T13:53:04;3.60;;;2.55;;
39410;SDS011;26579;43.238;23.124;2023-07-31T13:55:29;2.55;;;1.90;;
39410;SDS011;26579;43.238;23.124;2023-07-31T13:57:55;4.70;;;2.42;;
39410;SDS011;26579;43.238;23.124;2023-07-31T14:00:21;10.45;;;2.63;;
39410;SDS011;26579;43.238;23.124;2023-07-31T14:02:46;3.45;;;2.60;;
39410;SDS011;26579;43.238;23.124;2023-07-31T14:05:12;3.40;;;2.42;;
39410;SDS011;26579;43.238;23.124;2023-07-31T14:07:38;3.45;;;2.20;;
39410;SDS011;26579;43.238;23.124;2023-07-31T14:10:04;3.83;;;2.53;;
39410;SDS011;26579;43.238;23.124;2023-07-31T14:12:30;3.22;;;2.33;;
39410;SDS011;26579;43.238;23.124;2023-07-31T14:14:56;3.42;;;2.60;;
39410;SDS011;26579;43.238;23.124;2023-07-31T14:17:21;4.35;;;2.47;;
39410;SDS011;26579;43.238;23.124;2023-07-31T14:19:47;2.70;;;2.33;;
39410;SDS011;26579;43.238;23.124;2023-07-31T14:22:13;3.17;;;2.10;;
39410;SDS011;26579;43.238;23.124;2023-07-31T14:24:38;4.47;;;1.90;;
39410;SDS011;26579;43.238;23.124;2023-07-31T14:27:04;2.40;;;2.03;;
39410;SDS011;26579;43.238;23.124;2023-07-31T14:29:30;3.65;;;2.40;;
39410;SDS011;26579;43.238;23.124;2023-07-31T14:31:56;2.88;;;2.20;;
39410;SDS011;26579;43.238;23.124;2023-07-31T14:34:22;3.92;;;2.08;;
39410;SDS011;26579;43.238;23.124;2023-07-31T14:36:47;3.22;;;2.08;;
39410;SDS011;26579;43.238;23.124;2023-07-31T14:39:13;3.53;;;2.10;;
39410;SDS011;26579;43.238;23.124;2023-07-31T14:41:39;3.42;;;1.98;;
39410;SDS011;26579;43.238;23.124;2023-07-31T14:44:04;7.55;;;2.67;;
39410;SDS011;26579;43.238;23.124;2023-07-31T14:46:30;2.90;;;2.30;;
39410;SDS011;26579;43.238;23.124;2023-07-31T14:48:56;4.70;;;2.35;;
39410;SDS011;26579;43.238;23.124;2023-07-31T14:51:21;3.28;;;2.50;;
39410;SDS011;26579;43.238;23.124;2023-07-31T14:53:47;2.67;;;2.35;;
39410;SDS011;26579;43.238;23.124;2023-07-31T14:56:13;3.00;;;2.42;;
39410;SDS011;26579;43.238;23.124;2023-07-31T14:58:38;3.28;;;2.58;;
39410;SDS011;26579;43.238;23.124;2023-07-31T15:01:04;3.75;;;2.45;;
39410;SDS011;26579;43.238;23.124;2023-07-31T15:03:30;3.65;;;2.30;;
39410;SDS011;26579;43.238;23.124;2023-07-31T15:05:55;3.65;;;2.53;;